createdAt,value
2018-08-11T00:04:29.009Z,0.90
2018-08-11T00:09:31.590Z,0.90
2018-08-11T00:14:34.438Z,0.90
2018-08-11T00:19:37.074Z,0.93
2018-08-11T00:24:39.783Z,0.97
2018-08-11T00:29:42.450Z,0.97
2018-08-11T00:34:45.112Z,1.00
2018-08-11T00:39:47.744Z,1.10
2018-08-11T00:44:50.354Z,1.30
2018-08-11T00:49:53.018Z,1.30
2018-08-11T00:54:55.679Z,1.50
2018-08-11T00:59:58.346Z,1.50
2018-08-11T01:05:00.877Z,1.20
2018-08-11T01:10:04.339Z,1.23
2018-08-11T01:15:10.588Z,0.80
2018-08-11T01:20:13.848Z,1.20
2018-08-11T01:25:18.787Z,1.20
2018-08-11T01:30:21.886Z,0.93
2018-08-11T01:35:24.702Z,1.10
2018-08-11T01:40:27.303Z,1.23
2018-08-11T01:45:30.794Z,1.20
2018-08-11T01:50:33.467Z,1.40
2018-08-11T01:55:36.007Z,1.20
2018-08-11T02:00:38.577Z,1.10
2018-08-11T02:05:41.170Z,1.00
2018-08-11T02:10:43.778Z,1.23
2018-08-11T02:15:46.327Z,1.20
2018-08-11T02:20:48.849Z,1.10
2018-08-11T02:25:51.414Z,1.00
2018-08-11T02:30:53.953Z,1.20
2018-08-11T02:35:56.555Z,1.40
2018-08-11T02:40:59.246Z,1.17
2018-08-11T02:46:01.904Z,1.03
2018-08-11T02:51:04.442Z,1.27
2018-08-11T02:56:07.364Z,1.30
2018-08-11T03:01:09.887Z,1.27
2018-08-11T03:06:12.488Z,1.07
2018-08-11T03:11:15.099Z,1.20
2018-08-11T03:16:18.099Z,1.10
2018-08-11T03:21:20.615Z,1.40
2018-08-11T03:26:23.133Z,1.37
2018-08-11T03:31:25.671Z,1.50
2018-08-11T03:36:28.227Z,1.40
2018-08-11T03:41:30.775Z,1.30
2018-08-11T03:46:33.375Z,1.70
2018-08-11T03:51:35.890Z,1.50
2018-08-11T03:56:38.536Z,1.40
2018-08-11T04:01:41.075Z,1.10
2018-08-11T04:06:43.673Z,1.30
2018-08-11T04:11:46.146Z,1.40
2018-08-11T04:16:48.703Z,1.40
2018-08-11T04:21:51.238Z,1.20
2018-08-11T04:26:53.819Z,1.40
2018-08-11T04:31:56.382Z,1.00
2018-08-11T04:36:58.910Z,1.20
2018-08-11T04:42:01.451Z,1.10
2018-08-11T04:47:03.967Z,1.27
2018-08-11T04:52:06.620Z,1.20
2018-08-11T04:57:09.135Z,1.20
2018-08-11T05:02:11.682Z,1.30
2018-08-11T05:07:14.215Z,1.23
2018-08-11T05:12:16.756Z,1.07
2018-08-11T05:17:19.313Z,1.27
2018-08-11T05:22:21.919Z,1.10
2018-08-11T05:27:24.471Z,1.10
2018-08-11T05:32:27.119Z,1.20
2018-08-11T05:37:29.787Z,1.20
2018-08-11T05:42:32.357Z,1.07
2018-08-11T05:47:34.935Z,1.43
2018-08-11T05:52:37.535Z,1.57
2018-08-11T05:57:40.073Z,1.33
2018-08-11T06:02:42.578Z,1.00
2018-08-11T06:07:45.222Z,1.20
2018-08-11T06:12:47.838Z,1.40
2018-08-11T06:17:50.355Z,1.20
2018-08-11T06:22:52.938Z,1.10
2018-08-11T06:27:55.440Z,1.10
2018-08-11T06:32:58.055Z,1.20
2018-08-11T06:38:00.641Z,1.10
2018-08-11T06:43:03.211Z,1.10
2018-08-11T06:48:06.713Z,1.10
2018-08-11T06:53:09.260Z,1.27
2018-08-11T06:58:11.762Z,0.90
2018-08-11T07:03:14.316Z,0.80
2018-08-11T07:08:16.893Z,0.93
2018-08-11T07:13:19.543Z,1.00
2018-08-11T07:18:22.122Z,0.80
2018-08-11T07:23:24.770Z,0.97
2018-08-11T07:28:27.320Z,1.23
2018-08-11T07:33:29.944Z,1.30
2018-08-11T07:38:32.561Z,1.40
2018-08-11T07:43:35.146Z,1.13
2018-08-11T07:48:37.671Z,1.20
2018-08-11T07:53:40.209Z,1.10
2018-08-11T07:58:42.753Z,1.53
2018-08-11T08:03:45.258Z,1.30
2018-08-11T08:08:47.859Z,1.10
2018-08-11T08:13:50.467Z,1.20
2018-08-11T08:18:53.004Z,1.10
2018-08-11T08:23:55.786Z,1.10
2018-08-11T08:28:58.457Z,1.03
2018-08-11T08:34:01.038Z,1.13
2018-08-11T08:39:06.953Z,1.30
2018-08-11T08:44:09.474Z,1.10
2018-08-11T08:49:12.116Z,1.20
2018-08-11T08:54:14.653Z,1.20
2018-08-11T08:59:17.198Z,1.20
2018-08-11T09:04:19.751Z,1.10
2018-08-11T09:09:22.350Z,0.90
2018-08-11T09:14:24.923Z,0.97
2018-08-11T09:19:27.654Z,0.97
2018-08-11T09:24:30.122Z,0.90
2018-08-11T09:29:32.671Z,1.00
2018-08-11T09:34:35.211Z,1.07
2018-08-11T09:39:37.727Z,1.27
2018-08-11T09:44:40.390Z,1.20
2018-08-11T09:49:43.748Z,1.00
2018-08-11T09:54:46.295Z,1.07
2018-08-11T09:59:48.874Z,1.00
2018-08-11T10:04:51.400Z,1.20
2018-08-11T10:09:54.042Z,1.10
2018-08-11T10:14:56.590Z,1.10
2018-08-11T10:19:59.279Z,1.10
2018-08-11T10:25:01.825Z,1.10
2018-08-11T10:30:05.867Z,1.10
2018-08-11T10:35:08.391Z,0.90
2018-08-11T10:40:11.051Z,1.10
2018-08-11T10:45:13.683Z,1.10
2018-08-11T10:50:16.240Z,1.07
2018-08-11T10:55:18.917Z,1.00
2018-08-11T11:00:21.510Z,1.17
2018-08-11T11:05:24.191Z,1.00
2018-08-11T11:10:26.850Z,0.60
2018-08-11T11:15:29.407Z,0.83
2018-08-11T11:20:31.948Z,0.97
2018-08-11T11:25:34.487Z,1.17
2018-08-11T11:30:37.100Z,1.30
2018-08-11T11:35:39.649Z,1.07
2018-08-11T11:40:42.204Z,0.87
2018-08-11T11:45:44.733Z,1.00
2018-08-11T11:50:47.512Z,0.93
2018-08-11T11:55:50.113Z,1.00
2018-08-11T12:00:52.802Z,1.67
2018-08-11T12:05:55.370Z,1.20
2018-08-11T12:10:57.932Z,0.83
2018-08-11T12:16:00.487Z,1.00
2018-08-11T12:21:03.026Z,1.00
2018-08-11T12:26:05.624Z,1.02
2018-08-11T12:31:08.241Z,1.12
2018-08-11T12:36:10.722Z,0.90
2018-08-11T12:41:13.276Z,0.93
2018-08-11T12:46:15.866Z,0.85
2018-08-11T12:51:18.399Z,0.70
2018-08-11T12:56:21.050Z,0.93
2018-08-11T13:01:23.618Z,1.30
2018-08-11T13:06:26.183Z,1.07
2018-08-11T13:11:28.734Z,1.00
2018-08-11T13:16:31.490Z,0.90
2018-08-11T13:21:34.319Z,1.00
2018-08-11T13:26:36.887Z,1.00
2018-08-11T13:31:39.658Z,1.07
2018-08-11T13:36:42.315Z,0.90
2018-08-11T13:41:49.028Z,0.70
2018-08-11T13:46:51.683Z,0.75
2018-08-11T13:51:55.239Z,0.80
2018-08-11T13:56:57.857Z,0.80
2018-08-11T14:02:01.993Z,0.88
2018-08-11T14:07:04.600Z,0.80
2018-08-11T14:12:07.179Z,0.72
2018-08-11T14:17:09.719Z,0.77
2018-08-11T14:22:12.277Z,1.23
2018-08-11T14:27:14.932Z,0.90
2018-08-11T14:32:17.515Z,0.72
2018-08-11T14:37:20.068Z,1.20
2018-08-11T14:42:22.730Z,0.88
2018-08-11T14:47:25.358Z,1.20
2018-08-11T14:52:27.950Z,0.90
2018-08-11T14:57:30.522Z,1.10
2018-08-11T15:02:33.159Z,0.90
2018-08-11T15:07:36.072Z,1.00
2018-08-11T15:12:38.639Z,0.80
2018-08-11T15:17:42.142Z,0.80
2018-08-11T15:22:44.694Z,1.02
2018-08-11T15:27:47.239Z,0.80
2018-08-11T15:32:49.801Z,0.98
2018-08-11T15:37:53.183Z,1.40
2018-08-11T15:42:55.845Z,1.00
2018-08-11T15:47:58.421Z,0.80
2018-08-11T15:53:00.981Z,0.70
2018-08-11T15:58:03.612Z,1.02
2018-08-11T16:03:06.212Z,0.95
2018-08-11T16:08:08.827Z,0.98
2018-08-11T16:13:11.406Z,1.20
2018-08-11T16:18:14.011Z,1.20
2018-08-11T16:23:16.577Z,1.00
2018-08-11T16:28:19.174Z,1.00
2018-08-11T16:33:21.771Z,1.93
2018-08-11T16:38:24.330Z,1.27
2018-08-11T16:43:26.963Z,1.07
2018-08-11T16:48:29.484Z,0.97
2018-08-11T16:53:32.051Z,1.17
2018-08-11T16:58:34.632Z,1.20
2018-08-11T17:03:37.247Z,2.87
2018-08-11T17:08:39.811Z,2.33
2018-08-11T17:13:42.459Z,1.87
2018-08-11T17:18:45.307Z,1.40
2018-08-11T17:23:48.687Z,1.10
2018-08-11T17:28:51.213Z,1.40
2018-08-11T17:33:54.092Z,1.17
2018-08-11T17:38:56.663Z,1.40
2018-08-11T17:43:59.324Z,1.20
2018-08-11T17:49:02.001Z,1.57
2018-08-11T17:54:04.446Z,1.30
2018-08-11T17:59:07.026Z,1.57
2018-08-11T18:04:09.659Z,1.70
2018-08-11T18:09:12.903Z,1.30
2018-08-11T18:14:15.626Z,1.40
2018-08-11T18:19:18.252Z,1.60
2018-08-11T18:24:20.826Z,1.73
2018-08-11T18:29:23.383Z,1.87
2018-08-11T18:34:25.977Z,1.60
2018-08-11T18:39:28.645Z,1.57
2018-08-11T18:44:31.347Z,1.60
2018-08-11T18:49:33.983Z,1.60
2018-08-11T18:54:36.717Z,1.30
2018-08-11T18:59:39.464Z,1.67
2018-08-11T19:04:42.116Z,1.60
2018-08-11T19:09:44.877Z,2.10
2018-08-11T19:14:48.056Z,1.80
2018-08-11T19:19:50.690Z,1.80
2018-08-11T19:24:53.228Z,1.63
2018-08-11T19:29:55.802Z,1.67
2018-08-11T19:34:58.490Z,1.80
2018-08-11T19:40:01.238Z,1.87
2018-08-11T19:45:05.630Z,2.30
2018-08-11T19:50:09.968Z,1.40
2018-08-11T19:55:12.558Z,1.47
2018-08-11T20:00:18.666Z,1.60
2018-08-11T20:05:29.802Z,1.77
2018-08-11T20:10:32.859Z,1.50
2018-08-11T20:15:35.847Z,1.70
2018-08-11T20:20:38.425Z,2.07
2018-08-11T20:25:41.299Z,1.90
2018-08-11T20:30:43.804Z,2.10
2018-08-11T20:35:46.360Z,2.03
2018-08-11T20:40:48.899Z,1.60
2018-08-11T20:45:51.523Z,2.00
2018-08-11T20:50:54.125Z,1.40
2018-08-11T20:55:56.702Z,1.40
2018-08-11T21:00:59.366Z,1.90
2018-08-11T21:06:02.021Z,1.57
2018-08-11T21:11:04.941Z,1.73
2018-08-11T21:16:07.589Z,1.53
2018-08-11T21:21:10.213Z,2.20
2018-08-11T21:26:12.809Z,1.80
2018-08-11T21:31:15.596Z,1.73
2018-08-11T21:36:19.028Z,1.93
2018-08-11T21:41:21.630Z,1.80
2018-08-11T21:46:24.445Z,1.97
2018-08-11T21:51:27.033Z,1.60
2018-08-11T21:56:29.698Z,1.80
2018-08-11T22:01:32.514Z,1.90
2018-08-11T22:06:35.078Z,1.80
2018-08-11T22:11:37.675Z,1.60
2018-08-11T22:16:40.213Z,1.70
2018-08-11T22:21:42.783Z,1.63
2018-08-11T22:26:45.588Z,1.60
2018-08-11T22:31:48.190Z,1.80
2018-08-11T22:36:50.748Z,1.37
2018-08-11T22:41:53.446Z,1.40
2018-08-11T22:46:56.001Z,1.50
2018-08-11T22:51:58.635Z,1.43
2018-08-11T22:57:01.200Z,1.43
2018-08-11T23:02:03.944Z,1.40
2018-08-11T23:07:06.557Z,1.67
2018-08-11T23:12:09.250Z,1.60
2018-08-11T23:17:11.842Z,1.20
2018-08-11T23:22:14.392Z,1.50
2018-08-11T23:27:17.762Z,1.67
2018-08-11T23:32:20.626Z,1.43
2018-08-11T23:37:23.311Z,1.63
2018-08-11T23:42:26.132Z,1.70
2018-08-11T23:47:28.723Z,1.50
2018-08-11T23:52:31.310Z,1.57
2018-08-11T23:57:34.439Z,1.60
